createdAt,value
2023-04-10T00:00:20.597Z,7.75
2023-04-10T00:02:47.352Z,10.00
2023-04-10T00:05:13.929Z,9.82
2023-04-10T00:07:40.695Z,8.77
2023-04-10T00:10:07.629Z,9.40
2023-04-10T00:12:36.652Z,9.13
2023-04-10T00:15:04.305Z,10.48
2023-04-10T00:17:30.718Z,8.05
2023-04-10T00:19:59.086Z,7.95
2023-04-10T00:22:25.817Z,8.73
2023-04-10T00:24:52.198Z,10.75
2023-04-10T00:27:18.580Z,9.02
2023-04-10T00:29:45.125Z,8.30
2023-04-10T00:32:11.536Z,8.00
2023-04-10T00:34:37.930Z,9.05
2023-04-10T00:37:04.410Z,8.57
2023-04-10T00:39:30.828Z,10.15
2023-04-10T00:41:57.595Z,10.00
2023-04-10T00:44:23.960Z,8.15
2023-04-10T00:46:50.355Z,8.93
2023-04-10T00:49:18.394Z,11.13
2023-04-10T00:51:45.042Z,8.60
2023-04-10T00:54:12.217Z,8.52
2023-04-10T00:56:39.228Z,7.43
2023-04-10T00:59:07.259Z,8.70
2023-04-10T01:01:34.064Z,9.95
2023-04-10T01:04:00.992Z,9.88
2023-04-10T01:06:47.123Z,8.82
2023-04-10T01:09:35.305Z,8.73
2023-04-10T01:12:29.882Z,8.85
2023-04-10T01:15:06.633Z,8.68
2023-04-10T01:17:41.472Z,7.80
2023-04-10T01:20:16.418Z,8.85
2023-04-10T01:23:09.983Z,9.25
2023-04-10T01:28:33.312Z,9.02
2023-04-10T01:31:02.478Z,8.45
2023-04-10T01:33:38.987Z,7.93
2023-04-10T01:36:07.421Z,8.55
2023-04-10T01:38:36.213Z,8.55
2023-04-10T01:41:04.058Z,9.75
2023-04-10T01:43:32.895Z,9.73
2023-04-10T01:46:02.006Z,9.55
2023-04-10T01:48:29.136Z,8.32
2023-04-10T01:50:56.715Z,8.75
2023-04-10T01:53:24.502Z,8.40
2023-04-10T01:55:53.467Z,10.15
2023-04-10T01:58:19.887Z,9.38
2023-04-10T02:00:46.464Z,9.13
2023-04-10T02:03:14.444Z,9.52
2023-04-10T02:06:21.901Z,9.98
2023-04-10T02:08:55.553Z,9.00
2023-04-10T02:11:33.810Z,9.20
2023-04-10T02:14:03.973Z,7.95
2023-04-10T02:16:33.075Z,10.50
2023-04-10T02:19:02.045Z,8.70
2023-04-10T02:21:28.945Z,10.98
2023-04-10T02:23:58.779Z,10.75
2023-04-10T02:26:25.236Z,13.43
2023-04-10T02:28:51.693Z,9.20
2023-04-10T02:31:18.238Z,8.40
2023-04-10T02:33:44.792Z,10.40
2023-04-10T02:36:11.343Z,9.68
2023-04-10T02:38:37.760Z,10.48
2023-04-10T02:41:04.779Z,9.07
2023-04-10T02:43:31.233Z,8.90
2023-04-10T02:45:57.820Z,8.88
2023-04-10T02:48:26.647Z,9.73
2023-04-10T02:50:58.593Z,9.95
2023-04-10T02:53:26.078Z,10.50
2023-04-10T02:55:56.247Z,11.50
2023-04-10T02:58:22.734Z,10.80
2023-04-10T03:00:51.896Z,10.82
2023-04-10T03:03:37.271Z,9.18
2023-04-10T03:06:06.198Z,10.15
2023-04-10T03:08:33.921Z,9.10
2023-04-10T03:11:00.350Z,10.80
2023-04-10T03:13:26.738Z,11.20
2023-04-10T03:15:53.149Z,10.65
2023-04-10T03:18:20.013Z,11.00
2023-04-10T03:20:50.116Z,12.15
2023-04-10T03:23:19.142Z,11.38
2023-04-10T03:25:49.713Z,11.70
2023-04-10T03:28:17.083Z,11.30
2023-04-10T03:30:43.579Z,9.38
2023-04-10T03:33:10.134Z,11.20
2023-04-10T03:35:36.672Z,12.13
2023-04-10T03:38:03.118Z,10.02
2023-04-10T03:40:29.526Z,10.45
2023-04-10T03:42:55.931Z,13.40
2023-04-10T03:45:22.767Z,10.43
2023-04-10T03:47:49.294Z,10.60
2023-04-10T03:50:16.370Z,9.85
2023-04-10T03:52:52.162Z,11.40
2023-04-10T03:55:21.248Z,10.50
2023-04-10T03:57:49.585Z,12.55
2023-04-10T04:00:18.112Z,11.27
2023-04-10T04:02:50.479Z,13.27
2023-04-10T04:05:37.585Z,11.90
2023-04-10T04:08:22.883Z,12.27
2023-04-10T04:11:02.683Z,12.77
2023-04-10T04:13:47.610Z,10.75
2023-04-10T04:16:28.736Z,10.93
2023-04-10T04:21:44.378Z,12.43
2023-04-10T04:24:21.762Z,10.80
2023-04-10T04:27:11.514Z,13.10
2023-04-10T04:30:06.293Z,12.23
2023-04-10T04:32:43.666Z,11.10
2023-04-10T04:35:22.901Z,13.20
2023-04-10T04:38:16.743Z,12.88
2023-04-10T04:41:03.423Z,12.80
2023-04-10T04:43:49.289Z,11.75
2023-04-10T04:46:27.060Z,11.35
2023-04-10T04:49:11.917Z,13.25
2023-04-10T04:52:10.762Z,14.27
2023-04-10T04:54:41.404Z,13.15
2023-04-10T04:57:33.841Z,11.75
2023-04-10T05:00:07.509Z,12.50
2023-04-10T05:02:45.962Z,11.60
2023-04-10T05:05:41.844Z,11.70
2023-04-10T05:08:25.243Z,11.15
2023-04-10T05:11:06.127Z,13.77
2023-04-10T05:13:39.039Z,12.57
2023-04-10T05:16:34.540Z,12.38
2023-04-10T05:19:16.135Z,13.00
2023-04-10T05:21:51.560Z,12.95
2023-04-10T05:24:23.734Z,11.18
2023-04-10T05:27:08.751Z,11.30
2023-04-10T05:30:05.053Z,12.13
2023-04-10T05:32:37.597Z,13.13
2023-04-10T05:35:30.299Z,12.02
2023-04-10T05:38:05.290Z,12.05
2023-04-10T05:40:45.761Z,14.40
2023-04-10T05:43:35.514Z,10.43
2023-04-10T05:46:11.709Z,13.10
2023-04-10T05:49:00.144Z,13.80
2023-04-10T05:51:51.839Z,12.15
2023-04-10T05:54:53.782Z,15.55
2023-04-10T05:57:51.300Z,11.50
2023-04-10T06:00:36.983Z,10.65
2023-04-10T06:03:30.742Z,12.38
2023-04-10T06:06:02.417Z,12.90
2023-04-10T06:08:29.858Z,11.23
2023-04-10T06:10:56.223Z,11.02
2023-04-10T06:13:22.716Z,13.35
2023-04-10T06:15:51.722Z,12.90
2023-04-10T06:18:18.556Z,12.45
2023-04-10T06:20:44.958Z,12.85
2023-04-10T06:23:13.102Z,16.15
2023-04-10T06:25:39.743Z,11.93
2023-04-10T06:28:06.212Z,13.93
2023-04-10T06:30:34.628Z,13.73
2023-04-10T06:33:01.461Z,12.90
2023-04-10T06:35:28.114Z,13.20
2023-04-10T06:37:54.573Z,13.45
2023-04-10T06:40:21.201Z,14.95
2023-04-10T06:42:47.583Z,14.23
2023-04-10T06:45:22.306Z,13.27
2023-04-10T06:47:48.769Z,11.65
2023-04-10T06:50:15.280Z,14.57
2023-04-10T06:52:41.662Z,13.73
2023-04-10T06:55:08.293Z,12.30
2023-04-10T06:57:35.248Z,14.05
2023-04-10T07:00:01.912Z,16.35
2023-04-10T07:02:28.425Z,14.02
2023-04-10T07:04:56.780Z,13.60
2023-04-10T07:07:23.955Z,13.98
2023-04-10T07:09:50.314Z,14.85
2023-04-10T07:12:16.931Z,13.65
2023-04-10T07:14:43.295Z,13.38
2023-04-10T07:17:09.711Z,11.95
2023-04-10T07:19:37.571Z,15.75
2023-04-10T07:22:04.022Z,16.27
2023-04-10T07:24:31.828Z,13.43
2023-04-10T07:26:58.314Z,13.55
2023-04-10T07:29:24.685Z,13.07
2023-04-10T07:31:51.307Z,14.85
2023-04-10T07:34:17.842Z,16.20
2023-04-10T07:36:46.032Z,13.95
2023-04-10T07:39:12.760Z,13.52
2023-04-10T07:41:39.192Z,12.07
2023-04-10T07:44:05.704Z,13.80
2023-04-10T07:46:32.394Z,12.85
2023-04-10T07:48:58.759Z,14.50
2023-04-10T07:51:25.781Z,11.45
2023-04-10T07:53:52.143Z,9.98
2023-04-10T07:56:20.300Z,12.68
2023-04-10T07:58:47.424Z,11.30
2023-04-10T08:01:14.536Z,11.32
2023-04-10T08:03:43.130Z,12.90
2023-04-10T08:06:10.660Z,11.48
2023-04-10T08:08:38.368Z,10.73
2023-04-10T08:11:24.546Z,10.75
2023-04-10T08:13:55.615Z,9.63
2023-04-10T08:16:27.310Z,9.15
2023-04-10T08:18:56.681Z,11.52
2023-04-10T08:21:27.578Z,9.85
2023-04-10T08:23:55.689Z,9.32
2023-04-10T08:26:22.814Z,10.00
2023-04-10T08:28:51.075Z,8.52
2023-04-10T08:31:18.431Z,8.00
2023-04-10T08:33:44.930Z,11.85
2023-04-10T08:36:12.728Z,9.25
2023-04-10T08:38:39.577Z,7.90
2023-04-10T08:41:06.445Z,8.18
2023-04-10T08:43:34.509Z,9.70
2023-04-10T08:46:01.709Z,8.18
2023-04-10T08:48:39.618Z,6.03
2023-04-10T08:51:15.594Z,6.30
2023-04-10T08:53:50.675Z,6.57
2023-04-10T08:56:18.638Z,7.03
2023-04-10T08:58:45.746Z,6.57
2023-04-10T09:01:12.281Z,5.47
2023-04-10T09:03:38.939Z,7.70
2023-04-10T09:06:06.334Z,6.70
2023-04-10T09:08:33.928Z,5.80
2023-04-10T09:11:00.726Z,6.45
2023-04-10T09:13:41.445Z,5.90
2023-04-10T09:16:09.438Z,6.43
2023-04-10T09:18:46.140Z,6.90
2023-04-10T09:21:15.326Z,5.53
2023-04-10T09:23:44.228Z,6.53
2023-04-10T09:26:29.029Z,5.93
2023-04-10T09:29:00.629Z,5.78
2023-04-10T09:31:47.275Z,6.65
2023-04-10T09:34:18.575Z,5.90
2023-04-10T09:36:54.220Z,5.72
2023-04-10T09:39:21.056Z,5.93
2023-04-10T09:41:52.442Z,5.53
2023-04-10T09:44:30.045Z,6.13
2023-04-10T09:46:57.042Z,4.82
2023-04-10T09:49:23.573Z,5.20
2023-04-10T09:51:50.009Z,5.47
2023-04-10T09:54:16.375Z,5.35
2023-04-10T09:56:45.903Z,5.60
2023-04-10T09:59:14.033Z,6.50
2023-04-10T10:01:42.226Z,5.55
2023-04-10T10:04:09.350Z,4.90
2023-04-10T10:06:38.273Z,5.60
2023-04-10T10:09:05.648Z,6.10
2023-04-10T10:11:36.108Z,7.50
2023-04-10T10:14:07.921Z,6.18
2023-04-10T10:16:39.503Z,5.47
2023-04-10T10:19:16.221Z,5.88
2023-04-10T10:21:44.468Z,4.70
2023-04-10T10:24:12.767Z,5.72
2023-04-10T10:26:40.502Z,5.28
2023-04-10T10:29:10.955Z,6.15
2023-04-10T10:31:38.423Z,5.10
2023-04-10T10:34:07.428Z,5.40
2023-04-10T10:36:35.051Z,6.03
2023-04-10T10:39:19.994Z,5.15
2023-04-10T10:42:13.042Z,5.30
2023-04-10T10:45:02.233Z,5.32
2023-04-10T10:47:30.777Z,3.67
2023-04-10T10:49:57.291Z,4.00
2023-04-10T10:52:40.422Z,3.90
2023-04-10T10:55:22.247Z,3.20
2023-04-10T10:57:49.765Z,3.80
2023-04-10T11:00:16.590Z,3.70
2023-04-10T11:02:43.071Z,3.17
2023-04-10T11:05:09.785Z,3.40
2023-04-10T11:08:01.880Z,3.63
2023-04-10T11:11:07.053Z,2.65
2023-04-10T11:13:35.456Z,3.53
2023-04-10T11:16:04.875Z,2.80
2023-04-10T11:18:51.229Z,2.25
2023-04-10T11:21:23.450Z,3.83
2023-04-10T11:23:49.770Z,2.80
2023-04-10T11:26:38.166Z,2.40
2023-04-10T11:29:19.425Z,3.03
2023-04-10T11:31:56.887Z,2.88
2023-04-10T11:34:23.762Z,3.03
2023-04-10T11:36:50.329Z,2.83
2023-04-10T11:39:18.823Z,2.60
2023-04-10T11:41:47.205Z,3.25
2023-04-10T11:44:16.740Z,2.25
2023-04-10T11:46:47.137Z,2.70
2023-04-10T11:49:21.982Z,2.85
2023-04-10T11:51:50.650Z,2.47
2023-04-10T11:54:19.878Z,2.60
2023-04-10T11:57:01.089Z,3.03
2023-04-10T11:59:29.265Z,2.50
2023-04-10T12:02:14.692Z,4.80
2023-04-10T12:04:44.773Z,2.60
2023-04-10T12:07:11.746Z,2.63
2023-04-10T12:09:38.577Z,2.47
2023-04-10T12:12:07.402Z,2.80
2023-04-10T12:14:35.707Z,4.03
2023-04-10T12:17:03.836Z,3.95
2023-04-10T12:19:30.826Z,2.97
2023-04-10T12:21:58.807Z,3.95
2023-04-10T12:24:43.298Z,3.40
2023-04-10T12:27:20.388Z,5.57
2023-04-10T12:29:47.960Z,3.55
2023-04-10T12:32:14.637Z,4.03
2023-04-10T12:34:41.571Z,3.00
2023-04-10T12:37:09.828Z,4.20
2023-04-10T12:39:36.438Z,3.40
2023-04-10T12:42:15.821Z,3.88
2023-04-10T12:44:51.642Z,4.50
2023-04-10T12:47:18.216Z,3.83
2023-04-10T12:50:10.833Z,4.07
2023-04-10T12:52:40.674Z,3.70
2023-04-10T12:55:21.204Z,3.92
2023-04-10T12:57:48.963Z,5.03
2023-04-10T13:00:19.735Z,4.78
2023-04-10T13:02:48.367Z,4.05
2023-04-10T13:05:15.575Z,4.85
2023-04-10T13:07:42.128Z,4.15
2023-04-10T13:10:09.128Z,4.55
2023-04-10T13:12:36.241Z,3.63
2023-04-10T13:15:02.816Z,4.03
2023-04-10T13:17:29.487Z,3.50
2023-04-10T13:19:55.985Z,3.67
2023-04-10T13:22:22.572Z,3.92
2023-04-10T13:24:49.035Z,3.25
2023-04-10T13:27:15.663Z,3.97
2023-04-10T13:29:42.897Z,3.85
2023-04-10T13:32:09.957Z,4.80
2023-04-10T13:34:36.309Z,4.65
2023-04-10T13:37:02.981Z,3.60
2023-04-10T13:39:31.125Z,3.70
2023-04-10T13:41:59.077Z,3.95
2023-04-10T13:44:25.526Z,5.32
2023-04-10T13:46:52.074Z,3.75
2023-04-10T13:49:20.100Z,3.80
2023-04-10T13:51:46.712Z,4.10
2023-04-10T13:54:13.711Z,5.00
2023-04-10T13:56:41.062Z,9.07
2023-04-10T13:59:07.438Z,3.70
2023-04-10T14:01:33.882Z,3.40
2023-04-10T14:04:00.257Z,3.35
2023-04-10T14:06:27.193Z,3.53
2023-04-10T14:08:54.072Z,3.03
2023-04-10T14:11:21.550Z,4.03
2023-04-10T14:13:47.895Z,2.90
2023-04-10T14:16:14.614Z,3.05
2023-04-10T14:18:41.027Z,3.25
2023-04-10T14:21:07.556Z,4.45
2023-04-10T14:23:33.939Z,3.83
2023-04-10T14:26:00.427Z,2.60
2023-04-10T14:28:26.787Z,3.38
2023-04-10T14:30:53.223Z,2.60
2023-04-10T14:33:20.432Z,2.60
2023-04-10T14:35:47.789Z,2.95
2023-04-10T14:38:15.366Z,4.53
2023-04-10T14:40:42.366Z,3.83
2023-04-10T14:43:08.832Z,4.63
2023-04-10T14:45:35.425Z,2.95
2023-04-10T14:48:02.582Z,3.25
2023-04-10T14:50:31.681Z,3.30
2023-04-10T14:52:59.978Z,2.40
2023-04-10T14:55:28.491Z,3.78
2023-04-10T14:57:56.067Z,3.75
2023-04-10T15:00:25.207Z,4.05
2023-04-10T15:02:51.934Z,3.22
2023-04-10T15:05:18.920Z,3.00
2023-04-10T15:07:45.389Z,2.83
2023-04-10T15:10:11.837Z,3.05
2023-04-10T15:12:38.393Z,4.50
2023-04-10T15:15:06.087Z,3.78
2023-04-10T15:17:33.110Z,3.60
2023-04-10T15:19:59.546Z,3.17
2023-04-10T15:22:26.615Z,3.67
2023-04-10T15:24:53.047Z,2.75
2023-04-10T15:27:22.802Z,3.72
2023-04-10T15:29:49.501Z,3.10
2023-04-10T15:32:15.852Z,2.92
2023-04-10T15:34:42.291Z,2.92
2023-04-10T15:37:08.686Z,3.58
2023-04-10T15:39:36.874Z,2.83
2023-04-10T15:42:05.742Z,2.97
2023-04-10T15:44:32.181Z,2.97
2023-04-10T15:46:58.599Z,2.50
2023-04-10T15:49:36.069Z,2.80
2023-04-10T15:52:07.962Z,3.65
2023-04-10T15:54:34.748Z,3.40
2023-04-10T15:57:02.078Z,2.45
2023-04-10T15:59:28.651Z,3.45
2023-04-10T16:01:55.207Z,3.15
2023-04-10T16:04:21.717Z,3.15
2023-04-10T16:06:48.248Z,3.42
2023-04-10T16:09:25.008Z,3.10
2023-04-10T16:11:53.511Z,2.88
2023-04-10T16:14:19.981Z,2.63
2023-04-10T16:16:46.545Z,2.63
2023-04-10T16:19:12.968Z,2.45
2023-04-10T16:21:39.721Z,2.58
2023-04-10T16:24:06.411Z,3.28
2023-04-10T16:26:32.792Z,2.97
2023-04-10T16:28:59.118Z,3.03
2023-04-10T16:31:25.538Z,4.70
2023-04-10T16:33:51.975Z,3.00
2023-04-10T16:36:18.367Z,3.70
2023-04-10T16:38:45.188Z,2.63
2023-04-10T16:41:12.351Z,3.10
2023-04-10T16:43:38.804Z,4.80
2023-04-10T16:46:05.729Z,3.63
2023-04-10T16:48:33.583Z,4.65
2023-04-10T16:51:05.947Z,3.63
2023-04-10T16:53:33.598Z,3.60
2023-04-10T16:56:02.101Z,2.67
2023-04-10T16:58:30.724Z,2.50
2023-04-10T17:00:57.223Z,2.35
2023-04-10T17:03:23.719Z,2.83
2023-04-10T17:05:50.101Z,2.53
2023-04-10T17:08:16.516Z,2.38
2023-04-10T17:10:42.855Z,2.47
2023-04-10T17:13:09.260Z,3.00
2023-04-10T17:15:35.640Z,2.20
2023-04-10T17:18:02.152Z,2.58
2023-04-10T17:20:28.720Z,2.30
2023-04-10T17:22:55.222Z,2.50
2023-04-10T17:25:21.651Z,2.42
2023-04-10T17:27:48.000Z,2.15
2023-04-10T17:30:14.476Z,2.47
2023-04-10T17:32:41.705Z,2.30
2023-04-10T17:35:08.346Z,1.63
2023-04-10T17:37:34.765Z,1.85
2023-04-10T17:40:01.404Z,2.42
2023-04-10T17:42:27.871Z,3.33
2023-04-10T17:44:54.259Z,2.15
2023-04-10T17:47:20.636Z,2.17
2023-04-10T17:49:47.017Z,2.33
2023-04-10T17:52:13.418Z,2.40
2023-04-10T17:54:39.805Z,2.75
2023-04-10T17:57:06.332Z,3.65
2023-04-10T17:59:32.697Z,3.63
2023-04-10T18:01:59.184Z,3.05
2023-04-10T18:04:25.697Z,2.30
2023-04-10T18:06:52.156Z,1.98
2023-04-10T18:09:18.559Z,2.47
2023-04-10T18:11:45.074Z,2.83
2023-04-10T18:14:11.481Z,2.42
2023-04-10T18:16:38.071Z,13.98
2023-04-10T18:19:04.538Z,2.28
2023-04-10T18:21:31.371Z,2.10
2023-04-10T18:23:57.820Z,2.67
2023-04-10T18:26:24.371Z,2.28
2023-04-10T18:28:50.860Z,2.00
2023-04-10T18:31:18.992Z,2.92
2023-04-10T18:33:48.587Z,2.45
2023-04-10T18:36:24.047Z,4.45
2023-04-10T18:38:51.373Z,2.13
2023-04-10T18:41:17.861Z,2.70
2023-04-10T18:43:57.407Z,2.28
2023-04-10T18:46:32.122Z,2.05
2023-04-10T18:48:58.542Z,2.10
2023-04-10T18:51:26.390Z,2.90
2023-04-10T18:53:53.151Z,2.45
2023-04-10T18:56:19.886Z,3.42
2023-04-10T18:58:48.280Z,2.30
2023-04-10T19:01:17.513Z,2.28
2023-04-10T19:03:44.280Z,2.22
2023-04-10T19:06:10.895Z,2.40
2023-04-10T19:08:37.972Z,2.70
2023-04-10T19:11:06.352Z,3.10
2023-04-10T19:13:33.476Z,2.17
2023-04-10T19:16:03.523Z,2.30
2023-04-10T19:18:30.668Z,2.00
2023-04-10T19:20:57.115Z,3.03
2023-04-10T19:23:25.941Z,3.90
2023-04-10T19:25:54.336Z,2.15
2023-04-10T19:28:22.738Z,4.22
2023-04-10T19:30:49.254Z,4.57
2023-04-10T19:33:15.872Z,2.40
2023-04-10T19:35:42.400Z,3.28
2023-04-10T19:38:08.800Z,2.00
2023-04-10T19:40:35.775Z,2.38
2023-04-10T19:43:02.429Z,2.20
2023-04-10T19:45:29.454Z,3.13
2023-04-10T19:47:56.562Z,2.28
2023-04-10T19:50:23.259Z,2.83
2023-04-10T19:52:49.665Z,3.78
2023-04-10T19:55:18.796Z,3.38
2023-04-10T19:57:45.458Z,2.67
2023-04-10T20:00:12.644Z,2.55
2023-04-10T20:02:39.632Z,3.38
2023-04-10T20:05:06.652Z,2.80
2023-04-10T20:07:33.152Z,3.30
2023-04-10T20:10:03.211Z,2.50
2023-04-10T20:12:32.845Z,2.67
2023-04-10T20:15:00.108Z,2.83
2023-04-10T20:17:27.835Z,3.63
2023-04-10T20:19:54.539Z,3.15
2023-04-10T20:22:21.352Z,3.65
2023-04-10T20:24:47.774Z,3.72
2023-04-10T20:27:17.632Z,3.28
2023-04-10T20:29:44.030Z,3.70
2023-04-10T20:32:10.520Z,3.83
2023-04-10T20:34:37.065Z,3.05
2023-04-10T20:37:04.540Z,2.60
2023-04-10T20:39:32.680Z,3.78
2023-04-10T20:41:59.081Z,4.43
2023-04-10T20:44:25.493Z,4.40
2023-04-10T20:46:51.957Z,3.05
2023-04-10T20:49:18.346Z,3.10
2023-04-10T20:51:44.724Z,3.22
2023-04-10T20:54:11.502Z,4.00
2023-04-10T20:56:43.515Z,3.00
2023-04-10T20:59:11.062Z,3.67
2023-04-10T21:01:37.578Z,3.80
2023-04-10T21:04:04.308Z,4.55
2023-04-10T21:06:33.100Z,3.40
2023-04-10T21:08:59.652Z,3.95
2023-04-10T21:11:27.111Z,3.63
2023-04-10T21:13:53.986Z,3.97
2023-04-10T21:16:20.418Z,3.42
2023-04-10T21:18:47.499Z,4.90
2023-04-10T21:21:13.936Z,3.47
2023-04-10T21:23:40.300Z,3.60
2023-04-10T21:26:07.028Z,3.28
2023-04-10T21:28:33.481Z,3.45
2023-04-10T21:30:59.880Z,3.08
2023-04-10T21:33:26.337Z,3.75
2023-04-10T21:35:52.827Z,3.63
2023-04-10T21:38:19.312Z,3.38
2023-04-10T21:40:52.947Z,3.95
2023-04-10T21:43:20.592Z,4.30
2023-04-10T21:45:47.169Z,2.80
2023-04-10T21:48:13.628Z,3.80
2023-04-10T21:50:40.405Z,2.63
2023-04-10T21:53:06.813Z,4.78
2023-04-10T21:55:33.163Z,2.63
2023-04-10T21:57:59.520Z,2.50
2023-04-10T22:00:26.034Z,4.22
2023-04-10T22:02:52.608Z,5.10
2023-04-10T22:05:19.156Z,3.35
2023-04-10T22:07:45.641Z,2.70
2023-04-10T22:10:12.080Z,3.97
2023-04-10T22:12:38.477Z,3.33
2023-04-10T22:15:07.675Z,3.85
2023-04-10T22:17:34.439Z,4.22
2023-04-10T22:20:02.065Z,2.95
2023-04-10T22:22:28.508Z,3.15
2023-04-10T22:24:55.259Z,2.90
2023-04-10T22:27:23.569Z,3.15
2023-04-10T22:30:02.104Z,5.18
2023-04-10T22:32:30.053Z,3.65
2023-04-10T22:34:58.587Z,3.80
2023-04-10T22:37:25.132Z,3.15
2023-04-10T22:39:51.492Z,2.22
2023-04-10T22:42:17.855Z,2.60
2023-04-10T22:44:45.318Z,3.28
2023-04-10T22:47:11.744Z,5.20
2023-04-10T22:49:38.171Z,4.15
2023-04-10T22:52:04.667Z,3.00
2023-04-10T22:54:31.043Z,2.70
2023-04-10T22:56:57.773Z,3.55
2023-04-10T22:59:24.248Z,3.63
2023-04-10T23:01:51.464Z,4.28
2023-04-10T23:04:18.195Z,3.05
2023-04-10T23:06:44.766Z,2.70
2023-04-10T23:09:11.271Z,3.70
2023-04-10T23:11:37.766Z,3.47
2023-04-10T23:14:04.203Z,3.30
2023-04-10T23:16:30.891Z,3.42
2023-04-10T23:18:57.468Z,3.15
2023-04-10T23:21:23.813Z,3.15
2023-04-10T23:23:50.236Z,4.15
2023-04-10T23:26:16.616Z,3.72
2023-04-10T23:28:43.011Z,3.97
2023-04-10T23:31:09.583Z,3.30
2023-04-10T23:33:35.950Z,3.40
2023-04-10T23:36:02.421Z,4.80
2023-04-10T23:38:28.932Z,4.20
2023-04-10T23:40:55.475Z,4.40
2023-04-10T23:43:21.844Z,6.15
2023-04-10T23:45:48.274Z,3.92
2023-04-10T23:48:14.639Z,3.30
2023-04-10T23:50:41.010Z,1.73
2023-04-10T23:53:08.541Z,1.65
2023-04-10T23:55:35.747Z,1.65
2023-04-10T23:58:02.592Z,2.92
